ECN weather

Ercan International Airport
Nicosia, Nicosia District, Cyprus

Public forecast

Using degrees Celsius for public forecast. Weather courtesy of forecast.io.

Current aviation weather report (METAR) for Ercan International Airport

Retrieved 2019/10/16 23:20 UTC (0 seconds ago):

LCEN 162320Z 28006KT CAVOK 19/16 Q1014 NOSIG RMK RWY11 28006KT

Aviation forecast (TAF) for Ercan International Airport

Retrieved 2019/10/16 18:03 UTC (5 hours ago):

TAF TAF LCEN 161640Z 1618/1718 28012KT 9999 FEW025 BECMG 1706/1709 06012KT TEMPO 1711/1714 5000 TSRA FEW025CB SCT030